sensor_id;sensor_type;location;lat;lon;timestamp;P1;durP1;ratioP1;P2;durP2;ratioP2
4642;SDS011;2334;48.710;9.622;2023-08-06T00:01:00;9.50;;;3.93;;
4642;SDS011;2334;48.710;9.622;2023-08-06T00:03:28;3.93;;;3.53;;
4642;SDS011;2334;48.710;9.622;2023-08-06T00:05:55;3.47;;;3.17;;
4642;SDS011;2334;48.710;9.622;2023-08-06T00:08:21;5.17;;;4.10;;
4642;SDS011;2334;48.710;9.622;2023-08-06T00:10:48;6.30;;;4.63;;
4642;SDS011;2334;48.710;9.622;2023-08-06T00:13:15;8.63;;;4.33;;
4642;SDS011;2334;48.710;9.622;2023-08-06T00:15:42;8.73;;;5.10;;
4642;SDS011;2334;48.710;9.622;2023-08-06T00:18:09;5.93;;;3.70;;
4642;SDS011;2334;48.710;9.622;2023-08-06T00:20:39;5.63;;;4.10;;
4642;SDS011;2334;48.710;9.622;2023-08-06T00:23:06;4.50;;;3.70;;
4642;SDS011;2334;48.710;9.622;2023-08-06T00:25:34;6.50;;;4.73;;
4642;SDS011;2334;48.710;9.622;2023-08-06T00:28:01;5.30;;;3.30;;
4642;SDS011;2334;48.710;9.622;2023-08-06T00:30:27;8.90;;;4.50;;
4642;SDS011;2334;48.710;9.622;2023-08-06T00:32:54;5.10;;;2.60;;
4642;SDS011;2334;48.710;9.622;2023-08-06T00:35:21;3.93;;;3.10;;
4642;SDS011;2334;48.710;9.622;2023-08-06T00:37:49;5.93;;;3.10;;
4642;SDS011;2334;48.710;9.622;2023-08-06T00:40:16;4.30;;;3.63;;
4642;SDS011;2334;48.710;9.622;2023-08-06T00:42:46;6.50;;;3.23;;
4642;SDS011;2334;48.710;9.622;2023-08-06T00:45:13;3.90;;;3.50;;
4642;SDS011;2334;48.710;9.622;2023-08-06T00:47:40;3.37;;;3.13;;
4642;SDS011;2334;48.710;9.622;2023-08-06T00:50:08;4.97;;;4.47;;
4642;SDS011;2334;48.710;9.622;2023-08-06T00:52:35;3.90;;;2.70;;
4642;SDS011;2334;48.710;9.622;2023-08-06T00:55:04;5.27;;;3.37;;
4642;SDS011;2334;48.710;9.622;2023-08-06T00:57:32;3.87;;;3.57;;
4642;SDS011;2334;48.710;9.622;2023-08-06T00:59:59;7.90;;;3.83;;
4642;SDS011;2334;48.710;9.622;2023-08-06T01:02:27;6.83;;;4.03;;
4642;SDS011;2334;48.710;9.622;2023-08-06T01:04:53;5.80;;;3.70;;
4642;SDS011;2334;48.710;9.622;2023-08-06T01:07:24;3.93;;;3.50;;
4642;SDS011;2334;48.710;9.622;2023-08-06T01:10:02;3.43;;;3.20;;
4642;SDS011;2334;48.710;9.622;2023-08-06T01:12:47;4.73;;;3.70;;
4642;SDS011;2334;48.710;9.622;2023-08-06T01:15:22;3.30;;;2.87;;
4642;SDS011;2334;48.710;9.622;2023-08-06T01:17:54;9.33;;;4.43;;
4642;SDS011;2334;48.710;9.622;2023-08-06T01:20:21;4.83;;;4.07;;
4642;SDS011;2334;48.710;9.622;2023-08-06T01:22:49;3.97;;;3.60;;
4642;SDS011;2334;48.710;9.622;2023-08-06T01:25:16;3.80;;;3.20;;
4642;SDS011;2334;48.710;9.622;2023-08-06T01:27:44;4.07;;;3.17;;
4642;SDS011;2334;48.710;9.622;2023-08-06T01:30:15;5.50;;;3.97;;
4642;SDS011;2334;48.710;9.622;2023-08-06T01:32:44;6.70;;;4.73;;
4642;SDS011;2334;48.710;9.622;2023-08-06T01:35:15;5.07;;;3.90;;
4642;SDS011;2334;48.710;9.622;2023-08-06T01:37:43;4.70;;;4.00;;
4642;SDS011;2334;48.710;9.622;2023-08-06T01:40:13;4.73;;;3.53;;
4642;SDS011;2334;48.710;9.622;2023-08-06T01:42:40;4.17;;;3.80;;
4642;SDS011;2334;48.710;9.622;2023-08-06T01:45:07;9.10;;;4.10;;
4642;SDS011;2334;48.710;9.622;2023-08-06T01:47:35;4.53;;;4.00;;
4642;SDS011;2334;48.710;9.622;2023-08-06T01:50:02;4.43;;;3.70;;
4642;SDS011;2334;48.710;9.622;2023-08-06T01:52:29;4.80;;;3.90;;
4642;SDS011;2334;48.710;9.622;2023-08-06T01:54:56;8.50;;;4.83;;
4642;SDS011;2334;48.710;9.622;2023-08-06T01:57:24;4.43;;;3.97;;
4642;SDS011;2334;48.710;9.622;2023-08-06T01:59:51;5.33;;;3.90;;
4642;SDS011;2334;48.710;9.622;2023-08-06T02:02:18;5.37;;;4.03;;
4642;SDS011;2334;48.710;9.622;2023-08-06T02:04:45;3.83;;;3.53;;
4642;SDS011;2334;48.710;9.622;2023-08-06T02:07:12;6.83;;;4.37;;
4642;SDS011;2334;48.710;9.622;2023-08-06T02:09:38;6.57;;;4.70;;
4642;SDS011;2334;48.710;9.622;2023-08-06T02:12:06;5.90;;;3.90;;
4642;SDS011;2334;48.710;9.622;2023-08-06T02:14:35;4.57;;;4.17;;
4642;SDS011;2334;48.710;9.622;2023-08-06T02:17:01;4.80;;;4.30;;
4642;SDS011;2334;48.710;9.622;2023-08-06T02:19:28;5.67;;;4.03;;
4642;SDS011;2334;48.710;9.622;2023-08-06T02:21:55;5.13;;;3.87;;
4642;SDS011;2334;48.710;9.622;2023-08-06T02:24:22;5.80;;;4.20;;
4642;SDS011;2334;48.710;9.622;2023-08-06T02:26:49;3.67;;;3.10;;
4642;SDS011;2334;48.710;9.622;2023-08-06T02:29:16;3.97;;;3.67;;
4642;SDS011;2334;48.710;9.622;2023-08-06T02:31:44;4.00;;;3.47;;
4642;SDS011;2334;48.710;9.622;2023-08-06T02:34:11;10.10;;;3.80;;
4642;SDS011;2334;48.710;9.622;2023-08-06T02:36:38;5.07;;;4.57;;
4642;SDS011;2334;48.710;9.622;2023-08-06T02:39:05;8.53;;;4.27;;
4642;SDS011;2334;48.710;9.622;2023-08-06T02:41:32;6.77;;;4.20;;
4642;SDS011;2334;48.710;9.622;2023-08-06T02:43:59;8.73;;;3.30;;
4642;SDS011;2334;48.710;9.622;2023-08-06T02:46:25;4.40;;;3.60;;
4642;SDS011;2334;48.710;9.622;2023-08-06T02:48:54;4.80;;;3.73;;
4642;SDS011;2334;48.710;9.622;2023-08-06T02:51:20;3.37;;;3.03;;
4642;SDS011;2334;48.710;9.622;2023-08-06T02:53:47;3.57;;;3.20;;
4642;SDS011;2334;48.710;9.622;2023-08-06T02:56:14;3.93;;;3.53;;
4642;SDS011;2334;48.710;9.622;2023-08-06T02:58:41;3.70;;;3.33;;
4642;SDS011;2334;48.710;9.622;2023-08-06T03:01:08;4.83;;;3.47;;
4642;SDS011;2334;48.710;9.622;2023-08-06T03:03:35;4.60;;;3.23;;
4642;SDS011;2334;48.710;9.622;2023-08-06T03:06:03;3.30;;;2.93;;
4642;SDS011;2334;48.710;9.622;2023-08-06T03:08:30;8.67;;;3.23;;
4642;SDS011;2334;48.710;9.622;2023-08-06T03:10:57;4.27;;;3.27;;
4642;SDS011;2334;48.710;9.622;2023-08-06T03:13:24;3.47;;;3.17;;
4642;SDS011;2334;48.710;9.622;2023-08-06T03:15:51;10.40;;;3.87;;
4642;SDS011;2334;48.710;9.622;2023-08-06T03:18:19;4.30;;;3.40;;
4642;SDS011;2334;48.710;9.622;2023-08-06T03:20:46;3.40;;;2.80;;
4642;SDS011;2334;48.710;9.622;2023-08-06T03:23:14;4.43;;;3.30;;
4642;SDS011;2334;48.710;9.622;2023-08-06T03:25:41;6.00;;;3.30;;
4642;SDS011;2334;48.710;9.622;2023-08-06T03:28:08;3.17;;;2.87;;
4642;SDS011;2334;48.710;9.622;2023-08-06T03:30:35;5.70;;;3.60;;
4642;SDS011;2334;48.710;9.622;2023-08-06T03:33:02;3.23;;;2.77;;
4642;SDS011;2334;48.710;9.622;2023-08-06T03:35:29;6.37;;;2.80;;
4642;SDS011;2334;48.710;9.622;2023-08-06T03:37:56;6.80;;;3.27;;
4642;SDS011;2334;48.710;9.622;2023-08-06T03:40:24;4.93;;;3.70;;
4642;SDS011;2334;48.710;9.622;2023-08-06T03:42:51;4.10;;;2.20;;
4642;SDS011;2334;48.710;9.622;2023-08-06T03:45:18;3.73;;;2.93;;
4642;SDS011;2334;48.710;9.622;2023-08-06T03:47:45;2.80;;;2.43;;
4642;SDS011;2334;48.710;9.622;2023-08-06T03:50:11;3.03;;;2.47;;
4642;SDS011;2334;48.710;9.622;2023-08-06T03:52:38;6.07;;;2.90;;
4642;SDS011;2334;48.710;9.622;2023-08-06T03:55:05;2.60;;;2.40;;
4642;SDS011;2334;48.710;9.622;2023-08-06T03:57:34;4.43;;;3.20;;
4642;SDS011;2334;48.710;9.622;2023-08-06T04:00:01;3.93;;;3.27;;
4642;SDS011;2334;48.710;9.622;2023-08-06T04:02:28;6.00;;;3.00;;
4642;SDS011;2334;48.710;9.622;2023-08-06T04:04:55;5.57;;;3.70;;
4642;SDS011;2334;48.710;9.622;2023-08-06T04:07:24;5.37;;;2.70;;
4642;SDS011;2334;48.710;9.622;2023-08-06T04:09:52;3.93;;;2.57;;
4642;SDS011;2334;48.710;9.622;2023-08-06T04:12:19;6.17;;;3.10;;
4642;SDS011;2334;48.710;9.622;2023-08-06T04:14:48;5.00;;;3.20;;
4642;SDS011;2334;48.710;9.622;2023-08-06T04:17:15;2.40;;;2.20;;
4642;SDS011;2334;48.710;9.622;2023-08-06T04:19:45;3.80;;;3.50;;
4642;SDS011;2334;48.710;9.622;2023-08-06T04:22:12;4.03;;;3.33;;
4642;SDS011;2334;48.710;9.622;2023-08-06T04:24:39;13.17;;;3.50;;
4642;SDS011;2334;48.710;9.622;2023-08-06T04:27:06;2.90;;;2.60;;
4642;SDS011;2334;48.710;9.622;2023-08-06T04:29:34;3.20;;;2.70;;
4642;SDS011;2334;48.710;9.622;2023-08-06T04:32:03;2.47;;;2.03;;
4642;SDS011;2334;48.710;9.622;2023-08-06T04:34:32;6.67;;;3.20;;
4642;SDS011;2334;48.710;9.622;2023-08-06T04:36:59;3.33;;;2.30;;
4642;SDS011;2334;48.710;9.622;2023-08-06T04:39:26;11.30;;;2.50;;
4642;SDS011;2334;48.710;9.622;2023-08-06T04:41:54;3.63;;;3.00;;
4642;SDS011;2334;48.710;9.622;2023-08-06T04:44:21;6.10;;;2.80;;
4642;SDS011;2334;48.710;9.622;2023-08-06T04:46:48;3.63;;;2.90;;
4642;SDS011;2334;48.710;9.622;2023-08-06T04:49:16;5.07;;;3.07;;
4642;SDS011;2334;48.710;9.622;2023-08-06T04:51:43;4.03;;;2.63;;
4642;SDS011;2334;48.710;9.622;2023-08-06T04:54:10;4.90;;;2.50;;
4642;SDS011;2334;48.710;9.622;2023-08-06T04:56:37;4.80;;;2.80;;
4642;SDS011;2334;48.710;9.622;2023-08-06T04:59:04;2.70;;;2.40;;
4642;SDS011;2334;48.710;9.622;2023-08-06T05:01:30;4.20;;;3.20;;
4642;SDS011;2334;48.710;9.622;2023-08-06T05:03:57;5.50;;;2.77;;
4642;SDS011;2334;48.710;9.622;2023-08-06T05:06:26;4.27;;;2.53;;
4642;SDS011;2334;48.710;9.622;2023-08-06T05:08:52;5.67;;;2.50;;
4642;SDS011;2334;48.710;9.622;2023-08-06T05:11:19;2.40;;;2.23;;
4642;SDS011;2334;48.710;9.622;2023-08-06T05:13:46;4.00;;;2.37;;
4642;SDS011;2334;48.710;9.622;2023-08-06T05:16:13;3.70;;;2.40;;
4642;SDS011;2334;48.710;9.622;2023-08-06T05:18:40;2.50;;;1.73;;
4642;SDS011;2334;48.710;9.622;2023-08-06T05:21:07;3.83;;;1.97;;
4642;SDS011;2334;48.710;9.622;2023-08-06T05:23:35;4.80;;;2.13;;
4642;SDS011;2334;48.710;9.622;2023-08-06T05:26:02;2.30;;;1.90;;
4642;SDS011;2334;48.710;9.622;2023-08-06T05:28:29;3.07;;;2.10;;
4642;SDS011;2334;48.710;9.622;2023-08-06T05:30:55;4.13;;;1.60;;
4642;SDS011;2334;48.710;9.622;2023-08-06T05:33:22;1.60;;;1.40;;
4642;SDS011;2334;48.710;9.622;2023-08-06T05:35:49;1.70;;;1.40;;
4642;SDS011;2334;48.710;9.622;2023-08-06T05:38:16;1.30;;;1.20;;
4642;SDS011;2334;48.710;9.622;2023-08-06T05:40:44;1.43;;;1.20;;
4642;SDS011;2334;48.710;9.622;2023-08-06T05:43:11;1.30;;;1.20;;
4642;SDS011;2334;48.710;9.622;2023-08-06T05:45:38;3.83;;;1.20;;
4642;SDS011;2334;48.710;9.622;2023-08-06T05:48:05;1.53;;;1.20;;
4642;SDS011;2334;48.710;9.622;2023-08-06T05:50:32;1.30;;;1.20;;
4642;SDS011;2334;48.710;9.622;2023-08-06T05:52:58;3.30;;;1.23;;
4642;SDS011;2334;48.710;9.622;2023-08-06T05:55:25;1.27;;;1.20;;
4642;SDS011;2334;48.710;9.622;2023-08-06T05:57:53;4.40;;;1.23;;
4642;SDS011;2334;48.710;9.622;2023-08-06T06:00:21;1.10;;;0.80;;
4642;SDS011;2334;48.710;9.622;2023-08-06T06:02:48;1.90;;;1.10;;
4642;SDS011;2334;48.710;9.622;2023-08-06T06:05:15;2.50;;;0.80;;
4642;SDS011;2334;48.710;9.622;2023-08-06T06:07:42;2.00;;;1.03;;
4642;SDS011;2334;48.710;9.622;2023-08-06T06:10:09;2.50;;;0.93;;
4642;SDS011;2334;48.710;9.622;2023-08-06T06:12:37;3.03;;;1.30;;
4642;SDS011;2334;48.710;9.622;2023-08-06T06:15:06;4.03;;;0.80;;
4642;SDS011;2334;48.710;9.622;2023-08-06T06:17:34;4.80;;;1.20;;
4642;SDS011;2334;48.710;9.622;2023-08-06T06:20:01;2.73;;;0.80;;
4642;SDS011;2334;48.710;9.622;2023-08-06T06:22:29;1.90;;;1.00;;
4642;SDS011;2334;48.710;9.622;2023-08-06T06:24:56;1.93;;;1.40;;
4642;SDS011;2334;48.710;9.622;2023-08-06T06:27:23;5.60;;;1.20;;
4642;SDS011;2334;48.710;9.622;2023-08-06T06:29:49;3.40;;;1.00;;
4642;SDS011;2334;48.710;9.622;2023-08-06T06:32:18;1.73;;;0.87;;
4642;SDS011;2334;48.710;9.622;2023-08-06T06:34:45;1.67;;;1.13;;
4642;SDS011;2334;48.710;9.622;2023-08-06T06:37:12;0.77;;;0.73;;
4642;SDS011;2334;48.710;9.622;2023-08-06T06:39:39;2.93;;;1.00;;
4642;SDS011;2334;48.710;9.622;2023-08-06T06:42:06;4.37;;;1.20;;
4642;SDS011;2334;48.710;9.622;2023-08-06T06:44:33;2.47;;;1.27;;
4642;SDS011;2334;48.710;9.622;2023-08-06T06:47:00;6.00;;;1.20;;
4642;SDS011;2334;48.710;9.622;2023-08-06T06:49:28;1.27;;;0.90;;
4642;SDS011;2334;48.710;9.622;2023-08-06T06:51:55;3.13;;;1.10;;
4642;SDS011;2334;48.710;9.622;2023-08-06T06:54:22;1.70;;;1.07;;
4642;SDS011;2334;48.710;9.622;2023-08-06T06:56:48;2.30;;;1.00;;
4642;SDS011;2334;48.710;9.622;2023-08-06T06:59:15;2.40;;;1.07;;
4642;SDS011;2334;48.710;9.622;2023-08-06T07:01:42;1.33;;;1.10;;
4642;SDS011;2334;48.710;9.622;2023-08-06T07:04:09;1.00;;;0.80;;
4642;SDS011;2334;48.710;9.622;2023-08-06T07:06:37;2.70;;;1.03;;
4642;SDS011;2334;48.710;9.622;2023-08-06T07:09:04;1.33;;;0.80;;
4642;SDS011;2334;48.710;9.622;2023-08-06T07:11:31;1.80;;;0.80;;
4642;SDS011;2334;48.710;9.622;2023-08-06T07:13:58;0.73;;;0.63;;
4642;SDS011;2334;48.710;9.622;2023-08-06T07:16:25;3.10;;;0.93;;
4642;SDS011;2334;48.710;9.622;2023-08-06T07:18:52;1.63;;;0.93;;
4642;SDS011;2334;48.710;9.622;2023-08-06T07:21:20;0.70;;;0.70;;
4642;SDS011;2334;48.710;9.622;2023-08-06T07:23:49;0.97;;;0.60;;
4642;SDS011;2334;48.710;9.622;2023-08-06T07:26:15;0.97;;;0.77;;
4642;SDS011;2334;48.710;9.622;2023-08-06T07:28:42;2.97;;;0.70;;
4642;SDS011;2334;48.710;9.622;2023-08-06T07:31:09;0.93;;;0.70;;
4642;SDS011;2334;48.710;9.622;2023-08-06T07:33:36;0.50;;;0.50;;
4642;SDS011;2334;48.710;9.622;2023-08-06T07:36:10;1.10;;;0.60;;
4642;SDS011;2334;48.710;9.622;2023-08-06T07:38:38;0.80;;;0.60;;
4642;SDS011;2334;48.710;9.622;2023-08-06T07:41:07;0.60;;;0.53;;
4642;SDS011;2334;48.710;9.622;2023-08-06T07:43:34;0.60;;;0.60;;
4642;SDS011;2334;48.710;9.622;2023-08-06T07:46:01;0.77;;;0.60;;
4642;SDS011;2334;48.710;9.622;2023-08-06T07:48:28;0.83;;;0.50;;
4642;SDS011;2334;48.710;9.622;2023-08-06T07:50:55;1.90;;;0.77;;
4642;SDS011;2334;48.710;9.622;2023-08-06T07:53:22;0.53;;;0.53;;
4642;SDS011;2334;48.710;9.622;2023-08-06T07:55:52;0.50;;;0.50;;
4642;SDS011;2334;48.710;9.622;2023-08-06T07:58:21;1.57;;;0.60;;
4642;SDS011;2334;48.710;9.622;2023-08-06T08:00:49;1.80;;;0.50;;
4642;SDS011;2334;48.710;9.622;2023-08-06T08:03:16;1.50;;;0.60;;
4642;SDS011;2334;48.710;9.622;2023-08-06T08:05:43;0.60;;;0.60;;
4642;SDS011;2334;48.710;9.622;2023-08-06T08:08:11;0.50;;;0.50;;
4642;SDS011;2334;48.710;9.622;2023-08-06T08:10:38;3.60;;;0.83;;
4642;SDS011;2334;48.710;9.622;2023-08-06T08:13:05;0.80;;;0.50;;
4642;SDS011;2334;48.710;9.622;2023-08-06T08:15:33;1.10;;;0.60;;
4642;SDS011;2334;48.710;9.622;2023-08-06T08:18:00;0.70;;;0.67;;
4642;SDS011;2334;48.710;9.622;2023-08-06T08:20:27;1.30;;;0.67;;
4642;SDS011;2334;48.710;9.622;2023-08-06T08:22:57;0.83;;;0.73;;
4642;SDS011;2334;48.710;9.622;2023-08-06T08:25:25;0.67;;;0.67;;
4642;SDS011;2334;48.710;9.622;2023-08-06T08:27:52;0.40;;;0.40;;
4642;SDS011;2334;48.710;9.622;2023-08-06T08:30:19;1.70;;;0.70;;
4642;SDS011;2334;48.710;9.622;2023-08-06T08:32:48;0.50;;;0.50;;
4642;SDS011;2334;48.710;9.622;2023-08-06T08:35:15;1.03;;;0.50;;
4642;SDS011;2334;48.710;9.622;2023-08-06T08:37:42;0.50;;;0.50;;
4642;SDS011;2334;48.710;9.622;2023-08-06T08:40:09;1.90;;;0.50;;
4642;SDS011;2334;48.710;9.622;2023-08-06T08:42:36;0.73;;;0.50;;
4642;SDS011;2334;48.710;9.622;2023-08-06T08:45:04;1.20;;;0.90;;
4642;SDS011;2334;48.710;9.622;2023-08-06T08:47:33;0.43;;;0.43;;
4642;SDS011;2334;48.710;9.622;2023-08-06T08:50:02;0.50;;;0.50;;
4642;SDS011;2334;48.710;9.622;2023-08-06T08:52:31;0.40;;;0.40;;
4642;SDS011;2334;48.710;9.622;2023-08-06T08:54:59;0.40;;;0.40;;
4642;SDS011;2334;48.710;9.622;2023-08-06T08:57:28;0.40;;;0.40;;
4642;SDS011;2334;48.710;9.622;2023-08-06T08:59:55;0.40;;;0.40;;
4642;SDS011;2334;48.710;9.622;2023-08-06T09:02:22;0.40;;;0.40;;
4642;SDS011;2334;48.710;9.622;2023-08-06T09:04:51;0.40;;;0.40;;
4642;SDS011;2334;48.710;9.622;2023-08-06T09:07:21;0.40;;;0.40;;
4642;SDS011;2334;48.710;9.622;2023-08-06T09:09:49;0.40;;;0.40;;
4642;SDS011;2334;48.710;9.622;2023-08-06T09:12:18;0.37;;;0.37;;
4642;SDS011;2334;48.710;9.622;2023-08-06T09:14:45;1.00;;;0.40;;
4642;SDS011;2334;48.710;9.622;2023-08-06T09:17:12;1.07;;;0.50;;
4642;SDS011;2334;48.710;9.622;2023-08-06T09:19:41;0.40;;;0.40;;
4642;SDS011;2334;48.710;9.622;2023-08-06T09:22:12;4.53;;;0.60;;
4642;SDS011;2334;48.710;9.622;2023-08-06T09:24:40;1.23;;;0.40;;
4642;SDS011;2334;48.710;9.622;2023-08-06T09:27:10;0.93;;;0.40;;
4642;SDS011;2334;48.710;9.622;2023-08-06T09:29:40;0.50;;;0.50;;
4642;SDS011;2334;48.710;9.622;2023-08-06T09:32:08;1.20;;;0.40;;
4642;SDS011;2334;48.710;9.622;2023-08-06T09:34:35;2.20;;;0.50;;
4642;SDS011;2334;48.710;9.622;2023-08-06T09:37:04;0.30;;;0.30;;
4642;SDS011;2334;48.710;9.622;2023-08-06T09:39:31;0.50;;;0.50;;
4642;SDS011;2334;48.710;9.622;2023-08-06T09:41:59;0.40;;;0.40;;
4642;SDS011;2334;48.710;9.622;2023-08-06T09:44:27;1.47;;;0.50;;
4642;SDS011;2334;48.710;9.622;2023-08-06T09:46:56;1.20;;;0.40;;
4642;SDS011;2334;48.710;9.622;2023-08-06T09:49:25;1.00;;;0.47;;
4642;SDS011;2334;48.710;9.622;2023-08-06T09:51:53;0.60;;;0.50;;
4642;SDS011;2334;48.710;9.622;2023-08-06T09:54:23;0.40;;;0.40;;
4642;SDS011;2334;48.710;9.622;2023-08-06T09:56:51;0.40;;;0.40;;
4642;SDS011;2334;48.710;9.622;2023-08-06T09:59:20;0.30;;;0.30;;
4642;SDS011;2334;48.710;9.622;2023-08-06T10:01:47;1.30;;;0.43;;
4642;SDS011;2334;48.710;9.622;2023-08-06T10:04:15;0.30;;;0.30;;
4642;SDS011;2334;48.710;9.622;2023-08-06T10:06:43;0.43;;;0.40;;
4642;SDS011;2334;48.710;9.622;2023-08-06T10:09:13;0.50;;;0.40;;
4642;SDS011;2334;48.710;9.622;2023-08-06T10:11:39;0.40;;;0.40;;
4642;SDS011;2334;48.710;9.622;2023-08-06T10:14:10;0.40;;;0.40;;
4642;SDS011;2334;48.710;9.622;2023-08-06T10:16:41;0.40;;;0.40;;
4642;SDS011;2334;48.710;9.622;2023-08-06T10:19:09;0.40;;;0.40;;
4642;SDS011;2334;48.710;9.622;2023-08-06T10:21:37;2.63;;;2.53;;
4642;SDS011;2334;48.710;9.622;2023-08-06T10:24:06;0.40;;;0.40;;
4642;SDS011;2334;48.710;9.622;2023-08-06T10:26:35;0.40;;;0.40;;
4642;SDS011;2334;48.710;9.622;2023-08-06T10:32:04;0.40;;;0.40;;
4642;SDS011;2334;48.710;9.622;2023-08-06T10:37:19;0.40;;;0.40;;
4642;SDS011;2334;48.710;9.622;2023-08-06T10:39:48;0.50;;;0.50;;
4642;SDS011;2334;48.710;9.622;2023-08-06T10:42:27;0.40;;;0.40;;
4642;SDS011;2334;48.710;9.622;2023-08-06T10:45:12;0.40;;;0.40;;
4642;SDS011;2334;48.710;9.622;2023-08-06T10:47:42;0.40;;;0.40;;
4642;SDS011;2334;48.710;9.622;2023-08-06T10:50:11;0.40;;;0.40;;
4642;SDS011;2334;48.710;9.622;2023-08-06T10:52:41;0.43;;;0.43;;
4642;SDS011;2334;48.710;9.622;2023-08-06T10:55:09;0.40;;;0.40;;
4642;SDS011;2334;48.710;9.622;2023-08-06T10:57:36;0.30;;;0.30;;
4642;SDS011;2334;48.710;9.622;2023-08-06T11:00:04;0.50;;;0.50;;
4642;SDS011;2334;48.710;9.622;2023-08-06T11:02:33;0.40;;;0.40;;
4642;SDS011;2334;48.710;9.622;2023-08-06T11:07:44;0.40;;;0.40;;
4642;SDS011;2334;48.710;9.622;2023-08-06T11:10:13;1.83;;;1.17;;
4642;SDS011;2334;48.710;9.622;2023-08-06T11:12:40;0.40;;;0.40;;
4642;SDS011;2334;48.710;9.622;2023-08-06T11:15:08;0.40;;;0.40;;
4642;SDS011;2334;48.710;9.622;2023-08-06T11:17:36;0.40;;;0.40;;
4642;SDS011;2334;48.710;9.622;2023-08-06T11:20:05;0.40;;;0.40;;
4642;SDS011;2334;48.710;9.622;2023-08-06T11:22:34;0.40;;;0.40;;
4642;SDS011;2334;48.710;9.622;2023-08-06T11:25:02;0.40;;;0.40;;
4642;SDS011;2334;48.710;9.622;2023-08-06T11:27:30;0.50;;;0.50;;
4642;SDS011;2334;48.710;9.622;2023-08-06T11:29:57;0.50;;;0.50;;
4642;SDS011;2334;48.710;9.622;2023-08-06T11:32:24;0.40;;;0.40;;
4642;SDS011;2334;48.710;9.622;2023-08-06T11:34:52;0.30;;;0.30;;
4642;SDS011;2334;48.710;9.622;2023-08-06T11:37:20;0.40;;;0.40;;
4642;SDS011;2334;48.710;9.622;2023-08-06T11:39:50;0.57;;;0.50;;
4642;SDS011;2334;48.710;9.622;2023-08-06T11:42:17;0.50;;;0.50;;
4642;SDS011;2334;48.710;9.622;2023-08-06T11:44:44;0.40;;;0.40;;
4642;SDS011;2334;48.710;9.622;2023-08-06T11:47:12;0.43;;;0.43;;
4642;SDS011;2334;48.710;9.622;2023-08-06T11:49:41;2.20;;;0.67;;
4642;SDS011;2334;48.710;9.622;2023-08-06T11:52:11;0.50;;;0.40;;
4642;SDS011;2334;48.710;9.622;2023-08-06T11:54:40;1.47;;;0.40;;
4642;SDS011;2334;48.710;9.622;2023-08-06T11:57:09;0.40;;;0.40;;
4642;SDS011;2334;48.710;9.622;2023-08-06T11:59:37;0.50;;;0.50;;
4642;SDS011;2334;48.710;9.622;2023-08-06T12:02:05;1.77;;;0.60;;
4642;SDS011;2334;48.710;9.622;2023-08-06T12:07:31;2.20;;;0.67;;
4642;SDS011;2334;48.710;9.622;2023-08-06T12:09:59;0.70;;;0.70;;
4642;SDS011;2334;48.710;9.622;2023-08-06T12:12:27;1.43;;;0.67;;
4642;SDS011;2334;48.710;9.622;2023-08-06T12:14:54;0.70;;;0.70;;
4642;SDS011;2334;48.710;9.622;2023-08-06T12:17:22;0.70;;;0.70;;
4642;SDS011;2334;48.710;9.622;2023-08-06T12:19:49;1.90;;;0.70;;
4642;SDS011;2334;48.710;9.622;2023-08-06T12:22:16;0.60;;;0.60;;
4642;SDS011;2334;48.710;9.622;2023-08-06T12:24:44;0.67;;;0.67;;
4642;SDS011;2334;48.710;9.622;2023-08-06T12:27:13;0.73;;;0.73;;
4642;SDS011;2334;48.710;9.622;2023-08-06T12:29:42;0.90;;;0.80;;
4642;SDS011;2334;48.710;9.622;2023-08-06T12:32:10;0.80;;;0.80;;
4642;SDS011;2334;48.710;9.622;2023-08-06T12:34:37;0.67;;;0.67;;
4642;SDS011;2334;48.710;9.622;2023-08-06T12:37:05;0.70;;;0.67;;
4642;SDS011;2334;48.710;9.622;2023-08-06T12:39:32;1.20;;;1.10;;
4642;SDS011;2334;48.710;9.622;2023-08-06T12:42:00;0.70;;;0.70;;
4642;SDS011;2334;48.710;9.622;2023-08-06T12:44:27;0.80;;;0.80;;
4642;SDS011;2334;48.710;9.622;2023-08-06T12:46:56;1.10;;;0.87;;
4642;SDS011;2334;48.710;9.622;2023-08-06T12:49:24;0.87;;;0.63;;
4642;SDS011;2334;48.710;9.622;2023-08-06T12:51:52;0.70;;;0.70;;
4642;SDS011;2334;48.710;9.622;2023-08-06T12:54:19;0.63;;;0.63;;
4642;SDS011;2334;48.710;9.622;2023-08-06T12:56:46;1.07;;;0.70;;
4642;SDS011;2334;48.710;9.622;2023-08-06T12:59:15;0.87;;;0.77;;
4642;SDS011;2334;48.710;9.622;2023-08-06T13:01:43;0.80;;;0.80;;
4642;SDS011;2334;48.710;9.622;2023-08-06T13:04:12;3.40;;;0.70;;
4642;SDS011;2334;48.710;9.622;2023-08-06T13:06:40;0.60;;;0.60;;
4642;SDS011;2334;48.710;9.622;2023-08-06T13:09:06;0.70;;;0.70;;
4642;SDS011;2334;48.710;9.622;2023-08-06T13:11:33;1.17;;;0.87;;
4642;SDS011;2334;48.710;9.622;2023-08-06T13:14:03;1.27;;;1.17;;
4642;SDS011;2334;48.710;9.622;2023-08-06T13:16:31;0.63;;;0.63;;
4642;SDS011;2334;48.710;9.622;2023-08-06T13:18:58;1.73;;;0.90;;
4642;SDS011;2334;48.710;9.622;2023-08-06T13:21:30;0.90;;;0.80;;
4642;SDS011;2334;48.710;9.622;2023-08-06T13:23:59;1.50;;;0.87;;
4642;SDS011;2334;48.710;9.622;2023-08-06T13:26:26;0.90;;;0.90;;
4642;SDS011;2334;48.710;9.622;2023-08-06T13:28:54;4.63;;;0.80;;
4642;SDS011;2334;48.710;9.622;2023-08-06T13:31:21;6.50;;;0.90;;
4642;SDS011;2334;48.710;9.622;2023-08-06T13:33:48;1.67;;;0.60;;
4642;SDS011;2334;48.710;9.622;2023-08-06T13:36:15;2.43;;;0.50;;
4642;SDS011;2334;48.710;9.622;2023-08-06T13:38:43;0.60;;;0.60;;
4642;SDS011;2334;48.710;9.622;2023-08-06T13:41:10;0.97;;;0.60;;
4642;SDS011;2334;48.710;9.622;2023-08-06T13:43:37;0.70;;;0.70;;
4642;SDS011;2334;48.710;9.622;2023-08-06T13:46:04;1.03;;;0.77;;
4642;SDS011;2334;48.710;9.622;2023-08-06T13:48:31;1.63;;;0.70;;
4642;SDS011;2334;48.710;9.622;2023-08-06T13:50:58;0.80;;;0.80;;
4642;SDS011;2334;48.710;9.622;2023-08-06T13:53:25;1.63;;;0.80;;
4642;SDS011;2334;48.710;9.622;2023-08-06T13:55:56;0.60;;;0.60;;
4642;SDS011;2334;48.710;9.622;2023-08-06T13:58:23;2.83;;;0.70;;
4642;SDS011;2334;48.710;9.622;2023-08-06T14:00:51;0.90;;;0.90;;
4642;SDS011;2334;48.710;9.622;2023-08-06T14:03:19;1.23;;;0.80;;
4642;SDS011;2334;48.710;9.622;2023-08-06T14:05:46;0.93;;;0.90;;
4642;SDS011;2334;48.710;9.622;2023-08-06T14:08:13;0.70;;;0.60;;
4642;SDS011;2334;48.710;9.622;2023-08-06T14:10:40;0.70;;;0.70;;
4642;SDS011;2334;48.710;9.622;2023-08-06T14:13:08;0.70;;;0.67;;
4642;SDS011;2334;48.710;9.622;2023-08-06T14:15:35;0.60;;;0.60;;
4642;SDS011;2334;48.710;9.622;2023-08-06T14:18:04;0.70;;;0.70;;
4642;SDS011;2334;48.710;9.622;2023-08-06T14:20:33;3.20;;;0.90;;
4642;SDS011;2334;48.710;9.622;2023-08-06T14:23:00;2.53;;;0.70;;
4642;SDS011;2334;48.710;9.622;2023-08-06T14:25:27;0.70;;;0.60;;
4642;SDS011;2334;48.710;9.622;2023-08-06T14:27:53;0.50;;;0.50;;
4642;SDS011;2334;48.710;9.622;2023-08-06T14:30:22;0.60;;;0.60;;
4642;SDS011;2334;48.710;9.622;2023-08-06T14:32:49;0.63;;;0.63;;
4642;SDS011;2334;48.710;9.622;2023-08-06T14:35:16;0.60;;;0.60;;
4642;SDS011;2334;48.710;9.622;2023-08-06T14:37:43;0.50;;;0.50;;
4642;SDS011;2334;48.710;9.622;2023-08-06T14:40:10;1.80;;;0.93;;
4642;SDS011;2334;48.710;9.622;2023-08-06T14:42:38;0.43;;;0.43;;
4642;SDS011;2334;48.710;9.622;2023-08-06T14:45:05;0.83;;;0.50;;
4642;SDS011;2334;48.710;9.622;2023-08-06T14:47:34;0.80;;;0.70;;
4642;SDS011;2334;48.710;9.622;2023-08-06T14:50:01;0.70;;;0.70;;
4642;SDS011;2334;48.710;9.622;2023-08-06T14:52:27;1.13;;;0.70;;
4642;SDS011;2334;48.710;9.622;2023-08-06T14:54:55;0.60;;;0.60;;
4642;SDS011;2334;48.710;9.622;2023-08-06T14:57:21;0.70;;;0.70;;
4642;SDS011;2334;48.710;9.622;2023-08-06T14:59:53;4.60;;;0.70;;
4642;SDS011;2334;48.710;9.622;2023-08-06T15:02:20;2.70;;;0.80;;
4642;SDS011;2334;48.710;9.622;2023-08-06T15:04:48;0.70;;;0.70;;
4642;SDS011;2334;48.710;9.622;2023-08-06T15:07:16;0.60;;;0.60;;
4642;SDS011;2334;48.710;9.622;2023-08-06T15:09:42;0.97;;;0.50;;
4642;SDS011;2334;48.710;9.622;2023-08-06T15:12:10;3.53;;;0.60;;
4642;SDS011;2334;48.710;9.622;2023-08-06T15:14:37;1.00;;;0.60;;
4642;SDS011;2334;48.710;9.622;2023-08-06T15:17:04;0.60;;;0.60;;
4642;SDS011;2334;48.710;9.622;2023-08-06T15:19:31;5.80;;;1.47;;
4642;SDS011;2334;48.710;9.622;2023-08-06T15:22:00;0.50;;;0.50;;
4642;SDS011;2334;48.710;9.622;2023-08-06T15:24:27;0.53;;;0.53;;
4642;SDS011;2334;48.710;9.622;2023-08-06T15:26:54;0.80;;;0.80;;
4642;SDS011;2334;48.710;9.622;2023-08-06T15:29:21;0.60;;;0.60;;